Time;durP1;ratioP1;P1;durP2;ratioP2;P2;SDS_P1;SDS_P2;PMS_P1;PMS_P2;Temp;Humidity;BMP_temperature;BMP_pressure;BME280_temperature;BME280_humidity;BME280_pressure;Samples;Min_cycle;Max_cycle;Signal;HPM_P1;HPM_P2
2022/03/07 00:00:36;;;;;;;;;;;1.10;69.90;;;;;;5199566;28;19936;-87
2022/03/07 00:03:09;;;;;;;;;;;1.10;69.70;;;;;;5197324;28;19928;-87
2022/03/07 00:05:41;;;;;;;;;;;1.20;70.20;;;;;;5204423;28;19943;-87
2022/03/07 00:08:14;;;;;;;;;;;1.20;70.40;;;;;;5180252;28;19951;-86
2022/03/07 00:11:05;;;;;;;;;;;1.10;70.90;;;;;;5193281;28;19921;-86
2022/03/07 00:13:38;;;;;;;;;;;1.10;70.70;;;;;;5198956;28;19921;-87
2022/03/07 00:16:10;;;;;;;;;;;1.10;71.10;;;;;;5213385;28;20403;-87
2022/03/07 00:18:43;;;;;;;;;;;1.10;70.90;;;;;;5197335;28;19921;-87
2022/03/07 00:21:15;;;;;;;;;;;1.10;71.20;;;;;;5181713;28;20377;-87
2022/03/07 00:23:48;;;;;;;;;;;1.20;71.10;;;;;;5185077;28;20396;-86
2022/03/07 00:26:20;;;;;;;;;;;1.00;71.30;;;;;;5181772;28;19921;-86
2022/03/07 00:28:52;;;;;;;;;;;1.10;72.10;;;;;;5185615;28;19928;-87
2022/03/07 00:31:25;;;;;;;;;;;1.10;71.10;;;;;;5197598;28;19932;-87
2022/03/07 00:33:57;;;;;;;;;;;0.50;70.70;;;;;;5202839;28;19909;-87
2022/03/07 00:36:30;;;;;;;;;;;1.00;71.70;;;;;;5198160;28;19928;-87
2022/03/07 00:39:03;;;;;;;;;;;1.10;71.70;;;;;;5197500;28;19920;-86
2022/03/07 00:41:35;;;;;;;;;;;1.10;71.90;;;;;;5207493;28;19937;-87
2022/03/07 00:44:07;;;;;;;;;;;1.10;71.60;;;;;;5209158;28;19925;-87
2022/03/07 00:46:43;;;;;;;;;;;1.20;71.40;;;;;;5197836;28;19929;-86
2022/03/07 00:49:15;;;;;;;;;;;1.20;71.00;;;;;;5213075;28;20344;-86
2022/03/07 00:51:49;;;;;;;;;;;1.10;71.10;;;;;;5198880;28;19927;-87
2022/03/07 00:54:21;;;;;;;;;;;1.10;71.40;;;;;;5180398;28;20589;-87
2022/03/07 00:56:54;;;;;;;;;;;1.00;71.50;;;;;;5185311;28;19928;-87
2022/03/07 00:59:26;;;;;;;;;;;1.10;71.90;;;;;;5187909;28;19921;-86
2022/03/07 01:01:59;;;;;;;;;;;1.00;72.50;;;;;;5216311;28;19921;-86
2022/03/07 01:04:32;;;;;;;;;;;1.10;72.10;;;;;;5192114;28;20534;-86
2022/03/07 01:07:08;;;;;;;;;;;1.00;72.60;;;;;;5201486;28;19924;-87
2022/03/07 01:09:40;;;;;;;;;;;0.90;72.50;;;;;;5200598;28;19927;-86
2022/03/07 01:12:13;;;;;;;;;;;0.90;72.70;;;;;;5178306;28;19921;-86
2022/03/07 01:14:45;;;;;;;;;;;0.90;73.40;;;;;;5197542;28;19924;-86
2022/03/07 01:17:17;;;;;;;;;;;0.90;73.30;;;;;;5182262;28;19921;-86
2022/03/07 01:19:49;;;;;;;;;;;0.90;73.30;;;;;;5209887;28;19928;-86
2022/03/07 01:22:23;;;;;;;;;;;0.90;73.50;;;;;;5198087;28;19928;-86
2022/03/07 01:24:55;;;;;;;;;;;0.80;74.20;;;;;;5203828;28;19931;-86
2022/03/07 01:27:28;;;;;;;;;;;0.90;74.10;;;;;;5196823;28;19920;-86
2022/03/07 01:30:00;;;;;;;;;;;1.00;74.70;;;;;;5227970;28;19920;-86
2022/03/07 01:32:33;;;;;;;;;;;0.90;74.60;;;;;;5194630;28;20273;-86
2022/03/07 01:35:06;;;;;;;;;;;0.90;75.20;;;;;;5200214;28;19932;-86
2022/03/07 01:37:39;;;;;;;;;;;0.80;75.80;;;;;;5212451;28;19928;-86
2022/03/07 01:40:12;;;;;;;;;;;1.10;75.90;;;;;;5207420;28;19921;-86
2022/03/07 01:42:44;;;;;;;;;;;0.80;76.20;;;;;;5212638;28;20308;-86
2022/03/07 01:45:18;;;;;;;;;;;0.90;76.00;;;;;;5195845;28;20399;-86
2022/03/07 01:47:50;;;;;;;;;;;0.80;76.60;;;;;;5176272;28;19928;-86
2022/03/07 01:50:24;;;;;;;;;;;0.80;76.50;;;;;;5193186;28;20279;-86
2022/03/07 01:52:57;;;;;;;;;;;0.80;76.60;;;;;;5212603;28;19927;-86
2022/03/07 01:55:31;;;;;;;;;;;0.50;77.50;;;;;;5212243;28;19921;-86
2022/03/07 01:58:06;;;;;;;;;;;0.70;77.30;;;;;;5194697;28;19923;-86
2022/03/07 02:00:39;;;;;;;;;;;0.70;77.60;;;;;;5195090;28;19928;-86
2022/03/07 02:03:12;;;;;;;;;;;0.80;78.30;;;;;;5178413;28;20308;-86
2022/03/07 02:05:49;;;;;;;;;;;0.60;78.30;;;;;;5210968;28;19921;-86
2022/03/07 02:08:26;;;;;;;;;;;0.50;78.90;;;;;;5222462;28;19929;-86
2022/03/07 02:11:03;;;;;;;;;;;0.70;78.90;;;;;;5209792;28;20372;-86
2022/03/07 02:13:39;;;;;;;;;;;0.60;78.50;;;;;;5211211;28;19921;-86
2022/03/07 02:16:14;;;;;;;;;;;0.70;79.40;;;;;;5190368;28;19921;-85
2022/03/07 02:18:47;;;;;;;;;;;0.50;79.20;;;;;;5206241;28;20505;-86
2022/03/07 02:21:26;;;;;;;;;;;0.60;79.80;;;;;;5190650;28;19921;-86
2022/03/07 02:24:05;;;;;;;;;;;0.60;80.40;;;;;;5205625;28;20373;-86
2022/03/07 02:26:38;;;;;;;;;;;0.50;80.40;;;;;;5178026;28;20629;-86
2022/03/07 02:29:11;;;;;;;;;;;0.70;80.60;;;;;;5213024;28;19921;-86
2022/03/07 02:31:46;;;;;;;;;;;0.60;80.70;;;;;;5185469;28;19928;-86
2022/03/07 02:34:23;;;;;;;;;;;0.10;80.60;;;;;;5210311;28;19921;-86
2022/03/07 02:36:56;;;;;;;;;;;0.50;81.50;;;;;;5211136;28;19932;-85
2022/03/07 02:39:31;;;;;;;;;;;0.50;81.50;;;;;;5195419;28;20282;-85
2022/03/07 02:42:13;;;;;;;;;;;0.40;81.80;;;;;;5194735;28;19924;-86
2022/03/07 02:44:47;;;;;;;;;;;0.40;81.90;;;;;;5211086;28;19921;-86
2022/03/07 02:47:22;;;;;;;;;;;0.50;82.00;;;;;;5193610;28;19920;-85
2022/03/07 02:49:54;;;;;;;;;;;0.60;82.30;;;;;;5210161;28;20446;-86
2022/03/07 02:52:26;;;;;;;;;;;0.50;82.20;;;;;;5210848;28;19925;-86
2022/03/07 02:55:00;;;;;;;;;;;0.60;82.50;;;;;;5210199;28;19920;-85
2022/03/07 02:57:32;;;;;;;;;;;0.50;82.20;;;;;;5210494;28;19937;-86
2022/03/07 03:00:05;;;;;;;;;;;0.70;82.50;;;;;;5209570;28;19941;-86
2022/03/07 03:02:37;;;;;;;;;;;0.40;82.70;;;;;;5193676;28;19947;-86
2022/03/07 03:05:09;;;;;;;;;;;0.40;82.80;;;;;;5207629;28;19920;-86
2022/03/07 03:07:42;;;;;;;;;;;0.40;82.70;;;;;;5213601;28;19920;-86
2022/03/07 03:10:14;;;;;;;;;;;0.70;83.50;;;;;;5196655;28;19928;-86
2022/03/07 03:12:47;;;;;;;;;;;0.00;83.30;;;;;;5180826;28;20420;-86
2022/03/07 03:15:19;;;;;;;;;;;0.30;83.50;;;;;;5182469;28;19921;-86
2022/03/07 03:17:51;;;;;;;;;;;0.30;83.80;;;;;;5231630;28;19920;-87
2022/03/07 03:20:24;;;;;;;;;;;0.40;83.40;;;;;;5231590;28;19927;-87
2022/03/07 03:22:58;;;;;;;;;;;0.60;83.60;;;;;;5198178;28;19928;-87
2022/03/07 03:25:30;;;;;;;;;;;0.00;83.20;;;;;;5196107;28;19932;-87
2022/03/07 03:28:03;;;;;;;;;;;0.50;83.70;;;;;;5208763;28;20430;-87
2022/03/07 03:30:36;;;;;;;;;;;0.40;83.10;;;;;;5193224;28;19928;-87
2022/03/07 03:33:08;;;;;;;;;;;0.40;83.10;;;;;;5212219;28;19930;-87
2022/03/07 03:35:40;;;;;;;;;;;0.40;83.40;;;;;;5222420;28;19935;-86
2022/03/07 03:38:13;;;;;;;;;;;0.40;83.50;;;;;;5192968;28;19920;-87
2022/03/07 03:40:45;;;;;;;;;;;0.00;83.30;;;;;;5209800;28;19920;-86
2022/03/07 03:43:17;;;;;;;;;;;0.20;83.50;;;;;;5210587;28;20500;-87
2022/03/07 03:45:50;;;;;;;;;;;0.10;83.90;;;;;;5191006;28;19924;-87
2022/03/07 03:48:22;;;;;;;;;;;0.20;83.90;;;;;;5193708;28;19928;-87
2022/03/07 03:50:54;;;;;;;;;;;0.00;83.70;;;;;;5181181;28;19925;-86
2022/03/07 03:53:26;;;;;;;;;;;0.20;84.10;;;;;;5194546;28;19936;-86
2022/03/07 03:55:59;;;;;;;;;;;0.20;83.50;;;;;;5195912;28;20288;-85
2022/03/07 03:58:31;;;;;;;;;;;0.20;83.50;;;;;;5176012;28;19925;-86
2022/03/07 04:01:03;;;;;;;;;;;0.30;83.50;;;;;;5208854;28;19928;-87
2022/03/07 04:03:36;;;;;;;;;;;0.20;83.20;;;;;;5174792;28;20281;-86
2022/03/07 04:06:10;;;;;;;;;;;0.30;83.40;;;;;;5208399;28;20341;-85
2022/03/07 04:08:42;;;;;;;;;;;0.30;83.80;;;;;;5209307;28;20277;-85
2022/03/07 04:11:16;;;;;;;;;;;0.30;82.70;;;;;;5178008;28;19920;-86
2022/03/07 04:13:48;;;;;;;;;;;0.30;82.90;;;;;;5212791;28;19920;-85
2022/03/07 04:16:20;;;;;;;;;;;0.30;82.60;;;;;;5180960;28;19928;-86
2022/03/07 04:18:53;;;;;;;;;;;0.30;82.50;;;;;;5196482;28;19921;-85
2022/03/07 04:21:26;;;;;;;;;;;0.40;83.00;;;;;;5172042;28;19928;-85
2022/03/07 04:23:58;;;;;;;;;;;0.30;82.50;;;;;;5197583;28;20309;-85
2022/03/07 04:26:32;;;;;;;;;;;0.60;82.50;;;;;;5196016;28;19927;-85
2022/03/07 04:29:07;;;;;;;;;;;0.70;82.80;;;;;;5178501;28;20562;-85
2022/03/07 04:31:41;;;;;;;;;;;0.40;82.80;;;;;;5194715;28;19925;-85
2022/03/07 04:34:13;;;;;;;;;;;0.20;81.70;;;;;;5195339;28;19921;-85
2022/03/07 04:36:46;;;;;;;;;;;0.40;82.50;;;;;;5218491;28;20495;-85
2022/03/07 04:39:18;;;;;;;;;;;0.60;82.00;;;;;;5181319;28;19935;-84
2022/03/07 04:41:50;;;;;;;;;;;0.50;81.90;;;;;;5202458;28;20544;-84
2022/03/07 04:44:23;;;;;;;;;;;1.60;83.10;;;;;;5218943;28;19921;-85
2022/03/07 04:46:55;;;;;;;;;;;0.90;82.40;;;;;;5212684;28;19920;-85
2022/03/07 04:49:28;;;;;;;;;;;0.20;81.70;;;;;;5199911;28;19931;-85
2022/03/07 04:52:33;;;;;;;;;;;;;;;;;;;;;
2022/03/07 04:55:06;;;;;;;;;;;0.20;82.00;;;;;;5188797;28;19921;-84
2022/03/07 04:57:39;;;;;;;;;;;0.10;81.70;;;;;;5195451;28;19931;-84
2022/03/07 05:00:13;;;;;;;;;;;0.20;82.20;;;;;;5227166;28;19935;-85
2022/03/07 05:30:32;;;;;;;;;;;0.10;81.60;;;;;;5210257;28;19909;-86
2022/03/07 05:33:04;;;;;;;;;;;0.10;82.00;;;;;;5187684;28;19921;-87
2022/03/07 05:35:37;;;;;;;;;;;0.20;82.20;;;;;;5173353;28;19921;-87
2022/03/07 05:38:09;;;;;;;;;;;0.00;80.80;;;;;;5191989;28;19925;-87
2022/03/07 05:40:41;;;;;;;;;;;-0.10;80.70;;;;;;5215796;28;19927;-86
2022/03/07 05:43:14;;;;;;;;;;;0.10;81.40;;;;;;5225266;28;20289;-87
2022/03/07 05:45:46;;;;;;;;;;;-0.40;80.60;;;;;;5195084;28;19928;-87
2022/03/07 05:48:18;;;;;;;;;;;0.50;81.00;;;;;;5182632;28;19931;-87
2022/03/07 05:50:51;;;;;;;;;;;-0.40;80.70;;;;;;5174811;28;19928;-86
2022/03/07 05:53:23;;;;;;;;;;;-0.10;81.00;;;;;;5181753;28;20004;-87
2022/03/07 05:55:55;;;;;;;;;;;0.00;81.30;;;;;;5187819;28;19927;-87
2022/03/07 05:58:28;;;;;;;;;;;-0.10;81.50;;;;;;5182572;28;20115;-87
2022/03/07 06:01:00;;;;;;;;;;;-0.20;81.40;;;;;;5193232;28;19921;-86
2022/03/07 06:03:32;;;;;;;;;;;0.00;81.90;;;;;;5191930;28;20310;-87
2022/03/07 06:06:05;;;;;;;;;;;-0.10;81.20;;;;;;5208929;28;19925;-86
2022/03/07 06:08:37;;;;;;;;;;;0.00;81.20;;;;;;5189636;28;19920;-87
2022/03/07 06:11:09;;;;;;;;;;;-1.10;80.50;;;;;;5180503;28;20373;-87
2022/03/07 06:13:42;;;;;;;;;;;0.10;80.90;;;;;;5186535;28;20103;-87
2022/03/07 06:16:15;;;;;;;;;;;1.00;82.40;;;;;;5185284;28;19932;-86
2022/03/07 06:18:47;;;;;;;;;;;-0.10;81.80;;;;;;5187811;28;19927;-87
2022/03/07 06:21:19;;;;;;;;;;;-0.30;81.40;;;;;;5199412;28;20114;-86
2022/03/07 06:23:52;;;;;;;;;;;-0.30;81.60;;;;;;5201171;28;19921;-87
2022/03/07 06:26:24;;;;;;;;;;;-0.20;82.00;;;;;;5201532;28;19920;-86
2022/03/07 06:28:56;;;;;;;;;;;-0.30;81.20;;;;;;5192174;28;20324;-87
2022/03/07 06:31:29;;;;;;;;;;;-0.20;81.00;;;;;;5170399;28;19928;-86
2022/03/07 06:34:03;;;;;;;;;;;3.60;83.00;;;;;;5187286;28;19920;-87
2022/03/07 06:36:35;;;;;;;;;;;0.00;81.60;;;;;;5201051;28;19940;-86
2022/03/07 06:39:08;;;;;;;;;;;-0.20;81.20;;;;;;5190771;28;19931;-85
2022/03/07 06:41:40;;;;;;;;;;;-0.90;80.40;;;;;;5191246;28;20422;-87
2022/03/07 06:44:13;;;;;;;;;;;-0.30;81.30;;;;;;5176120;28;20347;-86
2022/03/07 06:46:45;;;;;;;;;;;-0.40;81.60;;;;;;5204281;28;20076;-86
2022/03/07 06:49:17;;;;;;;;;;;-0.50;81.10;;;;;;5192447;28;19921;-86
2022/03/07 06:51:49;;;;;;;;;;;-0.20;81.90;;;;;;5209863;28;19921;-87
2022/03/07 06:54:22;;;;;;;;;;;-0.20;81.40;;;;;;5208835;28;19921;-87
2022/03/07 06:56:54;;;;;;;;;;;-0.40;81.00;;;;;;5212492;28;19920;-87
2022/03/07 06:59:27;;;;;;;;;;;0.50;81.60;;;;;;5192030;28;19924;-86
2022/03/07 07:01:59;;;;;;;;;;;-0.70;80.90;;;;;;5196526;28;19925;-86
2022/03/07 07:04:31;;;;;;;;;;;-0.20;81.00;;;;;;5175223;28;19921;-87
2022/03/07 07:07:04;;;;;;;;;;;-0.10;81.30;;;;;;5183337;28;19925;-86
2022/03/07 07:09:36;;;;;;;;;;;0.00;81.80;;;;;;5179695;28;19924;-87
2022/03/07 07:12:09;;;;;;;;;;;-0.50;80.80;;;;;;5188554;28;20454;-87
2022/03/07 07:14:41;;;;;;;;;;;-0.10;80.10;;;;;;5204934;28;20415;-87
2022/03/07 07:17:14;;;;;;;;;;;0.50;80.40;;;;;;5192980;28;19921;-88
2022/03/07 07:19:46;;;;;;;;;;;0.20;80.90;;;;;;5188435;28;20468;-87
2022/03/07 07:22:19;;;;;;;;;;;-0.10;80.80;;;;;;5189169;28;19931;-87
2022/03/07 07:24:51;;;;;;;;;;;0.30;80.70;;;;;;5188720;28;19934;-86
2022/03/07 07:27:23;;;;;;;;;;;0.20;79.60;;;;;;5175281;28;20284;-87
2022/03/07 07:29:56;;;;;;;;;;;0.40;80.40;;;;;;5195623;28;19921;-88
2022/03/07 07:32:28;;;;;;;;;;;0.20;79.00;;;;;;5198518;28;19921;-87
2022/03/07 07:35:01;;;;;;;;;;;0.30;79.70;;;;;;5196654;28;19950;-88
2022/03/07 07:37:33;;;;;;;;;;;0.60;80.10;;;;;;5206680;28;19927;-88
2022/03/07 07:40:07;;;;;;;;;;;0.10;78.40;;;;;;5204511;28;19921;-87
2022/03/07 07:42:40;;;;;;;;;;;-0.20;79.40;;;;;;5190611;28;19931;-87
2022/03/07 07:45:12;;;;;;;;;;;0.60;79.30;;;;;;5175991;28;19928;-87
2022/03/07 07:47:45;;;;;;;;;;;0.10;79.60;;;;;;5169355;28;19939;-87
2022/03/07 07:50:17;;;;;;;;;;;0.00;79.20;;;;;;5170291;28;19928;-87
2022/03/07 07:52:50;;;;;;;;;;;0.20;80.00;;;;;;5175411;28;19925;-86
2022/03/07 07:55:23;;;;;;;;;;;0.10;78.50;;;;;;5211046;28;20319;-86
2022/03/07 07:57:55;;;;;;;;;;;0.60;78.90;;;;;;5213030;28;19920;-86
2022/03/07 08:00:27;;;;;;;;;;;0.40;78.90;;;;;;5217902;28;19921;-86
2022/03/07 08:03:00;;;;;;;;;;;0.50;78.60;;;;;;5174040;28;19921;-86
2022/03/07 08:05:32;;;;;;;;;;;0.30;78.50;;;;;;5213356;28;20396;-86
2022/03/07 08:08:04;;;;;;;;;;;-0.10;77.60;;;;;;5182345;28;19921;-86
2022/03/07 08:10:37;;;;;;;;;;;0.90;78.60;;;;;;5214820;28;19951;-86
2022/03/07 08:13:09;;;;;;;;;;;0.20;78.50;;;;;;5183540;28;20007;-86
2022/03/07 08:15:42;;;;;;;;;;;0.30;77.90;;;;;;5195581;28;19921;-86
2022/03/07 08:18:14;;;;;;;;;;;0.50;78.10;;;;;;5222259;28;20448;-86
2022/03/07 08:20:49;;;;;;;;;;;0.60;78.00;;;;;;5194000;28;19925;-86
2022/03/07 08:23:22;;;;;;;;;;;0.60;78.10;;;;;;5194220;28;19931;-86
2022/03/07 08:25:54;;;;;;;;;;;0.90;77.30;;;;;;5200281;28;19943;-86
2022/03/07 08:28:26;;;;;;;;;;;0.80;76.70;;;;;;5218950;28;19920;-87
2022/03/07 08:30:59;;;;;;;;;;;0.50;75.90;;;;;;5196975;28;20289;-86
2022/03/07 08:33:32;;;;;;;;;;;1.00;75.00;;;;;;5180862;28;20485;-87
2022/03/07 08:36:04;;;;;;;;;;;1.10;75.30;;;;;;5193963;28;19921;-86
2022/03/07 08:38:36;;;;;;;;;;;0.70;73.80;;;;;;5211151;28;19920;-87
2022/03/07 08:41:09;;;;;;;;;;;0.20;73.30;;;;;;5198007;28;19944;-86
2022/03/07 08:43:42;;;;;;;;;;;1.30;74.10;;;;;;5212617;28;20393;-87
2022/03/07 08:46:17;;;;;;;;;;;1.60;75.20;;;;;;5196364;28;19924;-87
2022/03/07 08:48:50;;;;;;;;;;;0.90;73.80;;;;;;5177332;28;19932;-86
2022/03/07 08:51:22;;;;;;;;;;;0.80;71.20;;;;;;5194595;28;20305;-87
2022/03/07 08:53:55;;;;;;;;;;;1.00;73.20;;;;;;5178765;28;19921;-87
2022/03/07 08:56:27;;;;;;;;;;;1.10;71.20;;;;;;5175205;28;19924;-87
2022/03/07 08:59:00;;;;;;;;;;;1.00;70.80;;;;;;5189892;28;19925;-86
2022/03/07 09:01:32;;;;;;;;;;;1.00;70.00;;;;;;5177988;28;19927;-86
2022/03/07 09:04:04;;;;;;;;;;;1.30;69.70;;;;;;5197361;28;19920;-87
2022/03/07 09:06:37;;;;;;;;;;;1.10;71.10;;;;;;5178170;28;20282;-86
2022/03/07 09:09:09;;;;;;;;;;;1.20;72.10;;;;;;5208716;28;19924;-87
2022/03/07 09:12:03;;;;;;;;;;;1.50;71.30;;;;;;5203371;28;19928;-87
2022/03/07 09:14:35;;;;;;;;;;;1.90;70.40;;;;;;5207333;28;19929;-87
2022/03/07 09:17:07;;;;;;;;;;;1.40;69.60;;;;;;5177258;28;19929;-87
2022/03/07 09:19:40;;;;;;;;;;;1.80;68.90;;;;;;5184823;28;19929;-86
2022/03/07 09:22:12;;;;;;;;;;;1.60;69.00;;;;;;5182366;28;19947;-86
2022/03/07 09:24:45;;;;;;;;;;;1.70;69.10;;;;;;5184200;28;19928;-86
2022/03/07 09:27:18;;;;;;;;;;;1.60;69.20;;;;;;5179409;28;19929;-87
2022/03/07 09:29:52;;;;;;;;;;;1.60;69.10;;;;;;5183022;23;19932;-37
2022/03/07 09:32:25;;;;;;;;;;;2.10;70.60;;;;;;5157270;28;21183;-36
2022/03/07 09:34:57;;;;;;;;;;;1.70;71.60;;;;;;5157211;28;19937;-36
2022/03/07 09:37:29;;;;;;;;;;;1.60;70.20;;;;;;5133545;28;19932;-37
2022/03/07 09:40:02;;;;;;;;;;;1.70;69.70;;;;;;5156267;28;20557;-37
2022/03/07 09:42:35;;;;;;;;;;;2.00;70.80;;;;;;5150645;28;20565;-36
2022/03/07 09:45:13;;;;;;;;;;;2.40;69.50;;;;;;5138799;28;19929;-35
2022/03/07 09:47:48;;;;;;;;;;;2.40;69.20;;;;;;5147220;28;19936;-35
2022/03/07 09:50:20;;;;;;;;;;;2.20;71.00;;;;;;5158515;28;19935;-36
2022/03/07 09:52:55;;;;;;;;;;;2.20;68.70;;;;;;5152890;28;19925;-37
2022/03/07 09:55:29;;;;;;;;;;;1.70;69.70;;;;;;5156779;28;19974;-38
2022/03/07 09:58:02;;;;;;;;;;;1.80;69.30;;;;;;5158931;28;19933;-38
2022/03/07 10:00:34;;;;;;;;;;;1.60;68.70;;;;;;5154751;28;19932;-37
2022/03/07 10:03:09;;;;;;;;;;;0.80;67.60;;;;;;5158321;28;19926;-37
2022/03/07 10:05:46;;;;;;;;;;;1.70;68.90;;;;;;5153326;28;19936;-37
2022/03/07 10:08:24;;;;;;;;;;;1.70;68.60;;;;;;5153333;28;19929;-37
2022/03/07 10:10:57;;;;;;;;;;;1.80;69.40;;;;;;5157772;28;19925;-36
2022/03/07 10:13:29;;;;;;;;;;;2.60;68.60;;;;;;5158424;28;19929;-37
2022/03/07 10:16:03;;;;;;;;;;;1.80;69.00;;;;;;5158923;28;19952;-36
2022/03/07 10:18:36;;;;;;;;;;;1.70;67.80;;;;;;5154624;28;20395;-40
2022/03/07 10:21:08;;;;;;;;;;;2.20;68.00;;;;;;5146334;28;21006;-40
2022/03/07 10:23:49;;;;;;;;;;;1.70;67.90;;;;;;5152008;28;19925;-38
2022/03/07 10:26:23;;;;;;;;;;;1.70;69.10;;;;;;5154412;28;19936;-39
2022/03/07 10:28:56;;;;;;;;;;;1.80;68.30;;;;;;5153644;28;19925;-40
2022/03/07 10:31:49;;;;;;;;;;;2.00;68.10;;;;;;5154958;28;19952;-39
2022/03/07 10:34:21;;;;;;;;;;;1.90;67.40;;;;;;5135965;28;19932;-38
2022/03/07 10:36:54;;;;;;;;;;;1.80;68.00;;;;;;5150011;28;20038;-37
2022/03/07 10:39:26;;;;;;;;;;;1.70;68.40;;;;;;5146193;28;25695;-37
2022/03/07 10:41:58;;;;;;;;;;;2.80;68.40;;;;;;5150276;28;19931;-40
2022/03/07 10:44:34;;;;;;;;;;;2.10;67.50;;;;;;5152216;28;19956;-37
2022/03/07 10:47:18;;;;;;;;;;;1.80;67.70;;;;;;5151326;28;20732;-38
2022/03/07 10:49:53;;;;;;;;;;;1.80;67.20;;;;;;5129673;28;19930;-38
2022/03/07 10:52:33;;;;;;;;;;;1.80;67.40;;;;;;5154689;28;19929;-39
2022/03/07 10:55:09;;;;;;;;;;;1.80;69.10;;;;;;5148650;28;19929;-39
2022/03/07 10:57:42;;;;;;;;;;;1.90;68.70;;;;;;5142310;28;20441;-39
2022/03/07 11:00:17;;;;;;;;;;;1.80;67.20;;;;;;5154328;28;19925;-38
2022/03/07 11:02:49;;;;;;;;;;;1.80;67.20;;;;;;5161548;28;19935;-40
2022/03/07 11:05:22;;;;;;;;;;;2.10;68.70;;;;;;5155236;28;19925;-38
2022/03/07 11:07:54;;;;;;;;;;;1.90;68.00;;;;;;5160470;28;20460;-40
2022/03/07 11:10:26;;;;;;;;;;;1.70;67.90;;;;;;5154990;28;20386;-38
2022/03/07 11:12:59;;;;;;;;;;;1.80;68.60;;;;;;5130499;28;20380;-40
2022/03/07 11:15:32;;;;;;;;;;;1.80;68.10;;;;;;5140287;28;20389;-39
2022/03/07 11:18:04;;;;;;;;;;;1.80;68.10;;;;;;5160702;28;19930;-38
2022/03/07 11:20:39;;;;;;;;;;;1.80;67.70;;;;;;5152441;28;19925;-39
2022/03/07 11:23:11;;;;;;;;;;;1.70;67.80;;;;;;5157438;28;19925;-42
2022/03/07 11:25:45;;;;;;;;;;;1.80;68.40;;;;;;5152172;28;20427;-39
2022/03/07 11:28:17;;;;;;;;;;;1.70;66.10;;;;;;5170275;23;19925;-35
2022/03/07 11:30:50;;;;;;;;;;;1.60;66.60;;;;;;5183688;28;20028;-34
2022/03/07 11:33:33;;;;;;;;;;;1.50;67.00;;;;;;5180965;28;19936;-41
2022/03/07 11:36:15;;;;;;;;;;;1.60;67.00;;;;;;5187814;28;20255;-37
2022/03/07 11:38:51;;;;;;;;;;;1.60;68.50;;;;;;5187203;28;20036;-36
2022/03/07 11:41:27;;;;;;;;;;;1.70;68.30;;;;;;5183530;28;19925;-36
2022/03/07 11:44:01;;;;;;;;;;;1.70;67.60;;;;;;5192894;28;19928;-36
2022/03/07 11:46:35;;;;;;;;;;;1.70;67.80;;;;;;5185159;28;20433;-36
2022/03/07 11:49:09;;;;;;;;;;;1.80;67.90;;;;;;5189911;28;20389;-36
2022/03/07 11:51:41;;;;;;;;;;;1.80;68.00;;;;;;5178414;28;19929;-36
2022/03/07 11:54:21;;;;;;;;;;;2.00;68.00;;;;;;5188402;28;19924;-36
2022/03/07 11:57:04;;;;;;;;;;;1.90;66.90;;;;;;5195621;28;19929;-36
2022/03/07 11:59:37;;;;;;;;;;;1.80;66.50;;;;;;5195729;28;19932;-36
2022/03/07 12:02:09;;;;;;;;;;;1.80;66.70;;;;;;5189169;28;19935;-37
2022/03/07 12:04:43;;;;;;;;;;;1.80;67.50;;;;;;5193828;28;19996;-36
2022/03/07 12:07:26;;;;;;;;;;;1.80;66.70;;;;;;5193085;28;19932;-36
2022/03/07 12:10:05;;;;;;;;;;;2.00;66.90;;;;;;5191849;28;19929;-36
2022/03/07 12:12:37;;;;;;;;;;;2.10;66.70;;;;;;5191557;28;19929;-36
2022/03/07 12:15:18;;;;;;;;;;;2.10;66.00;;;;;;5189299;28;19929;-36
2022/03/07 12:17:51;;;;;;;;;;;2.00;65.70;;;;;;5162829;28;19943;-37
2022/03/07 12:20:23;;;;;;;;;;;2.00;65.00;;;;;;5180265;28;20565;-36
2022/03/07 12:22:55;;;;;;;;;;;2.10;65.60;;;;;;5184863;28;20336;-36
2022/03/07 12:25:32;;;;;;;;;;;2.20;65.20;;;;;;5174300;28;19928;-37
2022/03/07 12:28:05;;;;;;;;;;;2.30;65.30;;;;;;5188837;28;20477;-36
2022/03/07 12:30:38;;;;;;;;;;;2.20;65.70;;;;;;5189339;28;20316;-35
2022/03/07 12:33:11;;;;;;;;;;;2.20;64.20;;;;;;5194424;28;19932;-36
2022/03/07 12:35:43;;;;;;;;;;;2.10;64.60;;;;;;5191643;28;19925;-36
2022/03/07 12:38:15;;;;;;;;;;;2.10;64.50;;;;;;5185928;28;20853;-36
2022/03/07 12:40:48;;;;;;;;;;;2.10;65.00;;;;;;5175856;28;20285;-37
2022/03/07 12:43:20;;;;;;;;;;;2.10;64.10;;;;;;5185356;28;19932;-36
2022/03/07 12:45:57;;;;;;;;;;;2.10;64.20;;;;;;5190223;28;20398;-36
2022/03/07 12:48:36;;;;;;;;;;;2.40;65.80;;;;;;5179658;28;20787;-36
2022/03/07 12:51:13;;;;;;;;;;;2.30;65.80;;;;;;5173971;28;20502;-36
2022/03/07 12:53:47;;;;;;;;;;;2.20;63.60;;;;;;5180841;28;19924;-36
2022/03/07 12:56:20;;;;;;;;;;;2.30;64.70;;;;;;5187463;28;19937;-36
2022/03/07 12:58:54;;;;;;;;;;;2.30;64.50;;;;;;5188794;28;19929;-37
2022/03/07 13:01:27;;;;;;;;;;;2.30;63.50;;;;;;5172838;28;20396;-36
2022/03/07 13:04:00;;;;;;;;;;;2.40;64.60;;;;;;5191061;28;19925;-36
2022/03/07 13:06:36;;;;;;;;;;;2.50;63.70;;;;;;5164284;28;19932;-37
2022/03/07 13:09:09;;;;;;;;;;;2.70;64.00;;;;;;5185461;28;19936;-36
2022/03/07 13:11:42;;;;;;;;;;;2.50;62.30;;;;;;5179224;28;20391;-36
2022/03/07 13:14:24;;;;;;;;;;;2.40;64.50;;;;;;5187483;28;21100;-36
2022/03/07 13:17:03;;;;;;;;;;;2.40;64.90;;;;;;5176649;28;20303;-36
2022/03/07 13:19:35;;;;;;;;;;;2.50;64.20;;;;;;5191258;28;20313;-36
2022/03/07 13:22:08;;;;;;;;;;;2.90;64.70;;;;;;5176873;28;19924;-36
2022/03/07 13:24:41;;;;;;;;;;;2.50;62.40;;;;;;5193818;28;19921;-36
2022/03/07 13:27:13;;;;;;;;;;;2.50;62.20;;;;;;5174587;28;19935;-37
2022/03/07 13:29:46;;;;;;;;;;;2.50;61.50;;;;;;5166698;28;20420;-36
2022/03/07 13:32:19;;;;;;;;;;;2.50;63.50;;;;;;5189936;28;20571;-36
2022/03/07 13:34:56;;;;;;;;;;;2.50;61.90;;;;;;5188560;28;19929;-36
2022/03/07 13:37:39;;;;;;;;;;;2.40;61.80;;;;;;5190937;28;19932;-36
2022/03/07 13:40:16;;;;;;;;;;;2.40;61.00;;;;;;5174437;28;19925;-36
2022/03/07 13:42:50;;;;;;;;;;;2.40;60.80;;;;;;5187749;28;19928;-36
2022/03/07 13:45:23;;;;;;;;;;;2.50;62.20;;;;;;5177836;28;20327;-35
2022/03/07 13:48:03;;;;;;;;;;;2.40;62.70;;;;;;5180236;28;20193;-35
2022/03/07 13:50:36;;;;;;;;;;;2.40;61.60;;;;;;5184833;28;19928;-35
2022/03/07 13:53:10;;;;;;;;;;;2.40;61.60;;;;;;5183695;28;19928;-34
2022/03/07 13:55:45;;;;;;;;;;;2.50;62.30;;;;;;5180391;28;19947;-35
2022/03/07 13:58:21;;;;;;;;;;;2.50;62.00;;;;;;5183999;28;19925;-35
2022/03/07 14:01:05;;;;;;;;;;;2.60;62.20;;;;;;5177651;28;20396;-34
2022/03/07 14:03:56;;;;;;;;;;;2.70;62.20;;;;;;5177539;28;19931;-35
2022/03/07 14:06:29;;;;;;;;;;;2.80;61.40;;;;;;5141864;28;20300;-35
2022/03/07 14:09:01;;;;;;;;;;;2.80;62.20;;;;;;5180029;28;20664;-35
2022/03/07 14:11:34;;;;;;;;;;;2.90;62.20;;;;;;5191375;28;19929;-35
2022/03/07 14:14:17;;;;;;;;;;;2.90;61.30;;;;;;5183446;28;20297;-34
2022/03/07 14:16:51;;;;;;;;;;;2.80;59.60;;;;;;5178115;28;20352;-35
2022/03/07 14:19:24;;;;;;;;;;;2.80;60.80;;;;;;5170635;28;20417;-34
2022/03/07 14:21:56;;;;;;;;;;;2.60;59.30;;;;;;5167098;28;20400;-35
2022/03/07 14:24:29;;;;;;;;;;;2.50;60.30;;;;;;5163821;28;19935;-35
2022/03/07 14:27:01;;;;;;;;;;;2.60;61.00;;;;;;5191138;28;19932;-35
2022/03/07 14:29:36;;;;;;;;;;;2.60;59.40;;;;;;5186978;28;19940;-35
2022/03/07 14:32:09;;;;;;;;;;;2.60;60.50;;;;;;5184448;28;19947;-35
2022/03/07 14:34:41;;;;;;;;;;;2.60;63.10;;;;;;5179202;28;19928;-36
2022/03/07 14:37:14;;;;;;;;;;;2.60;60.20;;;;;;5189613;28;19925;-36
2022/03/07 14:39:46;;;;;;;;;;;3.30;62.10;;;;;;5184138;28;20030;-36
2022/03/07 14:42:19;;;;;;;;;;;2.60;61.60;;;;;;5183226;28;20300;-36
2022/03/07 14:44:51;;;;;;;;;;;2.70;60.00;;;;;;5187780;28;19929;-36
2022/03/07 14:47:24;;;;;;;;;;;2.70;60.00;;;;;;5183018;28;19925;-36
2022/03/07 14:49:56;;;;;;;;;;;2.90;59.80;;;;;;5180079;28;19921;-37
2022/03/07 14:52:29;;;;;;;;;;;2.70;59.20;;;;;;5187907;28;19924;-37
2022/03/07 14:55:12;;;;;;;;;;;2.70;60.40;;;;;;5161248;28;19929;-36
2022/03/07 14:57:56;;;;;;;;;;;2.90;62.60;;;;;;5187387;28;19929;-37
2022/03/07 15:00:28;;;;;;;;;;;3.30;61.00;;;;;;5179310;28;19925;-36
2022/03/07 15:03:01;;;;;;;;;;;3.10;59.00;;;;;;5178030;28;19928;-37
2022/03/07 15:05:33;;;;;;;;;;;3.10;59.60;;;;;;5193650;28;19931;-36
2022/03/07 15:08:06;;;;;;;;;;;3.00;59.00;;;;;;5178563;28;20312;-36
2022/03/07 15:10:39;;;;;;;;;;;2.90;59.20;;;;;;5185530;28;19936;-36
2022/03/07 15:13:11;;;;;;;;;;;2.80;58.90;;;;;;5190716;28;20188;-37
2022/03/07 15:15:43;;;;;;;;;;;2.80;60.10;;;;;;5168018;28;19940;-36
2022/03/07 15:18:16;;;;;;;;;;;2.70;59.00;;;;;;5164455;28;19925;-35
2022/03/07 15:20:48;;;;;;;;;;;2.70;59.20;;;;;;5180552;28;20359;-34
2022/03/07 15:23:22;;;;;;;;;;;2.60;59.50;;;;;;5149189;28;20283;-35
2022/03/07 15:25:54;;;;;;;;;;;2.50;59.10;;;;;;5178446;28;19956;-35
2022/03/07 15:28:30;;;;;;;;;;;2.40;59.50;;;;;;5172554;28;20110;-35
2022/03/07 15:31:02;;;;;;;;;;;2.40;59.50;;;;;;5185266;28;19925;-35
2022/03/07 15:33:35;;;;;;;;;;;2.40;61.20;;;;;;5191719;28;20015;-35
2022/03/07 15:36:07;;;;;;;;;;;2.30;59.10;;;;;;5194952;28;19925;-35